Terminal Aerodrome Forecast
Issued by NWS

Home | Current Version | Previous Version | Text Only | Print | Product List | Glossary On
Versions: 1 2 3 4 5 6 7 8 9 10 11 12 13 14 15 16 17 18 19 20 21 22 23 24 25 26 27 28 29 30 31 32 33 34 35 36 37 38 39 40 41 42
000
FTUS41 KBOX 220538
TAFACK
TAF
KACK 220538Z 2206/2306 21006KT P6SM BKN250
     FM221300 23006KT P6SM BKN150 OVC200
     FM221900 17008KT P6SM VCSH OVC100
     FM222200 15008KT P6SM -SHRA OVC060
     FM230200 15009KT 5SM -SHRA BR OVC030
     FM230300 14009KT 4SM -SHRA BR OVC015
     FM230400 15008KT 2SM -SHRA BR OVC010
     FM230500 16008KT 1 1/2SM -SHRA BR OVC008=

USA.gov is the U.S. government's official web portal to all federal, state and local government web resources and services.